PWSweather.com
Personal Weather Stations
Station Observations
UWIDEPER1
Brown County, DePere, WI 54115

Brown CountyDePere, WI 54115

Lat: 44.44, Lon: -88.05

Elevation: 610

Station Type:

Latest ConditionsUpdated 6:30:06 AM CDT Friday, Aug 22, 2014
Currently Today's Max Today's Min Today's Average
Temperature 65.8°F18.8°C 66.4°F19.1°C 65.5°F18.6°C 65.9°F18.8°C
Dew Point 65.8°F18.8°C 66.1°F18.9°C 64.5°F18.1°C 65.3°F18.5°C
Winds Calm Calm 0.3 mph E0.5 kmh E - 0.0 mph 0.0 kmh
Wind Gusts -- 2.0 mph3.2 kmh - -
Humidity 100% 100% 94% 98%
Pressure 29.93 in1013.5 mb 29.94 in1013.9 mb 29.88 in1011.9 mb -
Hour Temp Dew Point Humidity Winds Wind Gusts Pressure Precip Precip Rate Daily Precip Total
06:30 AM 65.8°F18.8°C 65.8°F18.8°C 100% Calm Calm -- 29.93 in1013.5 mb 0.00 in0.0 mm 0.00 in/hr0.0 mm/hr 0.00 in0.0 mm
06:15 AM 65.8°F18.8°C 65.8°F18.8°C 100% Calm Calm -- 29.93 in1013.5 mb 0.00 in0.0 mm 0.00 in/hr0.0 mm/hr 0.00 in0.0 mm
06:00 AM 65.6°F18.7°C 65.6°F18.7°C 100% Calm Calm -- 29.94 in1013.9 mb 0.00 in0.0 mm 0.00 in/hr0.0 mm/hr 0.00 in0.0 mm
05:45 AM 65.6°F18.7°C 65.6°F18.7°C 100% Calm Calm -- 29.93 in1013.5 mb 0.00 in0.0 mm 0.00 in/hr0.0 mm/hr 0.00 in0.0 mm
05:30 AM 65.6°F18.7°C 65.6°F18.7°C 100% Calm Calm -- 29.93 in1013.5 mb 0.00 in0.0 mm 0.00 in/hr0.0 mm/hr 0.00 in0.0 mm
05:15 AM 65.5°F18.6°C 65.5°F18.6°C 100% Calm Calm -- 29.92 in1013.2 mb 0.00 in0.0 mm 0.00 in/hr0.0 mm/hr 0.00 in0.0 mm
05:00 AM 65.5°F18.6°C 65.5°F18.6°C 100% Calm Calm -- 29.91 in1012.9 mb 0.00 in0.0 mm 0.00 in/hr0.0 mm/hr 0.00 in0.0 mm
04:45 AM 65.5°F18.6°C 65.5°F18.6°C 100% Calm Calm -- 29.90 in1012.5 mb 0.00 in0.0 mm 0.00 in/hr0.0 mm/hr 0.00 in0.0 mm
04:30 AM 65.5°F18.6°C 65.5°F18.6°C 100% Calm Calm -- 29.89 in1012.2 mb 0.00 in0.0 mm 0.00 in/hr0.0 mm/hr 0.00 in0.0 mm
04:15 AM 65.5°F18.6°C 65.5°F18.6°C 100% Calm Calm -- 29.88 in1011.9 mb 0.00 in0.0 mm 0.00 in/hr0.0 mm/hr 0.00 in0.0 mm
04:00 AM 65.5°F18.6°C 65.5°F18.6°C 100% Calm Calm -- 29.88 in1011.9 mb 0.00 in0.0 mm 0.00 in/hr0.0 mm/hr 0.00 in0.0 mm
03:45 AM 65.6°F18.7°C 65.6°F18.7°C 100% Calm Calm 1.0 mph1.6 kmh 29.88 in1011.9 mb 0.00 in0.0 mm 0.00 in/hr0.0 mm/hr 0.00 in0.0 mm
03:30 AM 65.6°F18.7°C 65.6°F18.7°C 100% Calm Calm 1.0 mph1.6 kmh 29.89 in1012.2 mb 0.00 in0.0 mm 0.00 in/hr0.0 mm/hr 0.00 in0.0 mm
03:15 AM 65.8°F18.8°C 65.8°F18.8°C 100% Calm Calm -- 29.90 in1012.5 mb 0.00 in0.0 mm 0.00 in/hr0.0 mm/hr 0.00 in0.0 mm
03:00 AM 65.8°F18.8°C 65.8°F18.8°C 100% Calm Calm -- 29.90 in1012.5 mb 0.00 in0.0 mm 0.00 in/hr0.0 mm/hr 0.00 in0.0 mm
02:45 AM 66.0°F18.9°C 66.0°F18.9°C 100% Calm Calm -- 29.90 in1012.5 mb 0.00 in0.0 mm 0.00 in/hr0.0 mm/hr 0.00 in0.0 mm
02:30 AM 66.1°F18.9°C 66.1°F18.9°C 100% Calm Calm -- 29.91 in1012.9 mb 0.00 in0.0 mm 0.00 in/hr0.0 mm/hr 0.00 in0.0 mm
02:15 AM 66.1°F18.9°C 64.6°F18.1°C 95% Calm Calm -- 29.91 in1012.9 mb 0.00 in0.0 mm 0.00 in/hr0.0 mm/hr 0.00 in0.0 mm
02:00 AM 66.3°F19.1°C 64.8°F18.2°C 95% Calm Calm -- 29.91 in1012.9 mb 0.00 in0.0 mm 0.00 in/hr0.0 mm/hr 0.00 in0.0 mm
01:45 AM 66.3°F19.1°C 64.8°F18.2°C 95% Calm Calm -- 29.91 in1012.9 mb 0.00 in0.0 mm 0.00 in/hr0.0 mm/hr 0.00 in0.0 mm
01:30 AM 66.3°F19.1°C 64.8°F18.2°C 95% Calm Calm -- 29.92 in1013.2 mb 0.00 in0.0 mm 0.00 in/hr0.0 mm/hr 0.00 in0.0 mm
01:15 AM 66.3°F19.1°C 64.8°F18.2°C 95% 0.2 mph ENE0.3 kmh ENE 2.0 mph3.2 kmh 29.93 in1013.5 mb 0.00 in0.0 mm 0.00 in/hr0.0 mm/hr 0.00 in0.0 mm
01:00 AM 66.3°F19.1°C 64.5°F18.1°C 94% Calm Calm -- 29.93 in1013.5 mb 0.00 in0.0 mm 0.00 in/hr0.0 mm/hr 0.00 in0.0 mm
12:45 AM 66.3°F19.1°C 64.6°F18.1°C 94% Calm Calm -- 29.93 in1013.5 mb 0.00 in0.0 mm 0.00 in/hr0.0 mm/hr 0.00 in0.0 mm
12:30 AM 66.4°F19.1°C 64.6°F18.1°C 94% 0.1 mph E0.2 kmh E 1.0 mph1.6 kmh 29.93 in1013.5 mb 0.00 in0.0 mm 0.00 in/hr0.0 mm/hr 0.00 in0.0 mm
12:15 AM 66.4°F19.1°C 64.6°F18.1°C 94% Calm Calm -- 29.93 in1013.5 mb 0.00 in0.0 mm 0.00 in/hr0.0 mm/hr 0.00 in0.0 mm
12:00 AM 66.4°F19.1°C 64.6°F18.1°C 94% 0.3 mph E0.5 kmh E 2.0 mph3.2 kmh 29.93 in1013.5 mb 0.00 in0.0 mm 0.00 in/hr0.0 mm/hr 0.00 in0.0 mm